createdAt,value
2017-01-13T00:03:24.081Z,0
2017-01-13T00:08:24.412Z,0
2017-01-13T00:13:23.612Z,0
2017-01-13T00:18:23.580Z,0
2017-01-13T00:23:24.319Z,0
2017-01-13T00:28:23.902Z,0
2017-01-13T00:33:23.870Z,0
2017-01-13T00:38:23.433Z,0
2017-01-13T00:43:23.792Z,0
2017-01-13T00:48:24.142Z,0
2017-01-13T00:53:23.730Z,0
2017-01-13T00:58:24.089Z,0
2017-01-13T01:03:24.053Z,0
2017-01-13T01:08:24.008Z,0
2017-01-13T01:13:23.974Z,0
2017-01-13T01:18:23.552Z,0
2017-01-13T01:23:23.910Z,0
2017-01-13T01:28:23.490Z,0
2017-01-13T01:33:23.454Z,0
2017-01-13T01:38:23.414Z,0
2017-01-13T01:43:23.776Z,0
2017-01-13T01:48:23.546Z,0
2017-01-13T01:53:23.730Z,0
2017-01-13T01:58:23.280Z,0
2017-01-13T02:03:23.628Z,0
2017-01-13T02:08:23.594Z,0
2017-01-13T02:13:23.180Z,0
2017-01-13T02:18:23.140Z,0
2017-01-13T02:23:23.492Z,0
2017-01-13T02:28:23.072Z,0
2017-01-13T02:33:23.424Z,0
2017-01-13T02:38:23.392Z,0
2017-01-13T02:43:23.363Z,0
2017-01-13T02:48:23.320Z,0
2017-01-13T02:53:22.894Z,0
2017-01-13T02:58:22.870Z,0
2017-01-13T03:03:23.208Z,0
2017-01-13T03:08:23.178Z,0
2017-01-13T03:13:22.750Z,0
2017-01-13T03:18:23.102Z,0
2017-01-13T03:23:23.070Z,0
2017-01-13T03:28:23.032Z,0
2017-01-13T03:33:22.994Z,0
2017-01-13T03:38:22.965Z,0
2017-01-13T03:43:22.922Z,0
2017-01-13T03:48:22.511Z,0
2017-01-13T03:53:22.078Z,0
2017-01-13T03:58:22.453Z,0
2017-01-13T04:03:22.783Z,0
2017-01-13T04:08:22.361Z,0
2017-01-13T04:13:22.333Z,0
2017-01-13T04:18:22.291Z,0
2017-01-13T04:23:22.249Z,0
2017-01-13T04:28:22.596Z,0
2017-01-13T04:33:22.177Z,0
2017-01-13T04:38:21.779Z,0
2017-01-13T04:43:22.487Z,0
2017-01-13T04:48:22.452Z,0
2017-01-13T04:53:22.035Z,0
2017-01-13T04:58:22.000Z,0
2017-01-13T05:03:21.950Z,0
2017-01-13T05:08:21.923Z,0
2017-01-13T05:13:21.873Z,0
2017-01-13T05:18:22.232Z,0
2017-01-13T05:23:21.800Z,0
2017-01-13T05:28:22.147Z,0
2017-01-13T05:33:22.108Z,0
2017-01-13T05:38:22.069Z,0
2017-01-13T05:43:21.678Z,0
2017-01-13T05:48:21.991Z,0
2017-01-13T05:53:21.961Z,0
2017-01-13T05:58:21.540Z,0
2017-01-13T06:03:21.883Z,0
2017-01-13T06:08:21.453Z,0
2017-01-13T06:13:21.813Z,0
2017-01-13T06:18:20.993Z,0
2017-01-13T06:23:20.953Z,0
2017-01-13T06:28:21.298Z,0
2017-01-13T06:33:21.644Z,0
2017-01-13T06:38:21.613Z,0
2017-01-13T06:43:21.180Z,0
2017-01-13T06:48:21.544Z,0
2017-01-13T06:53:21.514Z,0
2017-01-13T06:58:20.355Z,0
2017-01-13T07:03:21.081Z,0
2017-01-13T07:08:21.440Z,4
2017-01-13T07:13:21.031Z,8
2017-01-13T07:18:21.393Z,16
2017-01-13T07:23:21.378Z,32
2017-01-13T07:28:20.984Z,56
2017-01-13T07:33:20.939Z,92
2017-01-13T07:38:20.919Z,140
2017-01-13T07:43:21.282Z,200
2017-01-13T07:48:20.873Z,276
2017-01-13T07:53:21.236Z,208
2017-01-13T07:58:20.437Z,472
2017-01-13T08:03:21.186Z,692
2017-01-13T08:08:20.776Z,540
2017-01-13T08:13:21.134Z,624
2017-01-13T08:18:21.117Z,864
2017-01-13T08:23:20.697Z,796
2017-01-13T08:28:21.059Z,1292
2017-01-13T08:33:20.264Z,2188
2017-01-13T08:38:20.626Z,1380
2017-01-13T08:43:20.596Z,1056
2017-01-13T08:48:20.575Z,1908
2017-01-13T08:53:20.926Z,3440
2017-01-13T08:58:20.128Z,3984
2017-01-13T09:03:20.490Z,3000
2017-01-13T09:08:20.072Z,3172
2017-01-13T09:13:20.434Z,3424
2017-01-13T09:18:20.801Z,3452
2017-01-13T09:23:19.612Z,3416
2017-01-13T09:28:20.780Z,3124
2017-01-13T09:33:19.950Z,2304
2017-01-13T09:38:20.317Z,2592
2017-01-13T09:43:19.912Z,3472
2017-01-13T09:48:20.655Z,3836
2017-01-13T09:53:20.643Z,4236
2017-01-13T09:58:20.218Z,8160
2017-01-13T10:03:20.197Z,5824
2017-01-13T10:08:19.781Z,4912
2017-01-13T10:13:19.770Z,6376
2017-01-13T10:18:19.753Z,4636
2017-01-13T10:23:19.759Z,5160
2017-01-13T10:28:20.090Z,5912
2017-01-13T10:33:20.073Z,8776
2017-01-13T10:38:20.056Z,7532
2017-01-13T10:43:20.035Z,8844
2017-01-13T10:48:20.401Z,7224
2017-01-13T10:53:20.385Z,7384
2017-01-13T10:58:20.367Z,11944
2017-01-13T11:03:20.355Z,6544
2017-01-13T11:08:20.353Z,5360
2017-01-13T11:13:20.911Z,8084
2017-01-13T11:18:19.915Z,15424
2017-01-13T11:23:20.287Z,41760
2017-01-13T11:28:19.905Z,79648
2017-01-13T11:33:19.904Z,87488
2017-01-13T11:38:20.291Z,92032
2017-01-13T11:43:19.556Z,22080
2017-01-13T11:48:20.325Z,94496
2017-01-13T11:53:20.325Z,90048
2017-01-13T11:58:19.567Z,93312
2017-01-13T12:03:20.355Z,66432
2017-01-13T12:08:19.969Z,46912
2017-01-13T12:13:19.971Z,31424
2017-01-13T12:18:19.994Z,32544
2017-01-13T12:23:20.373Z,25792
2017-01-13T12:28:20.376Z,59840
2017-01-13T12:33:19.584Z,10364
2017-01-13T12:38:20.368Z,19744
2017-01-13T12:43:19.971Z,21824
2017-01-13T12:48:20.350Z,18624
2017-01-13T12:53:19.961Z,11532
2017-01-13T12:58:19.174Z,13416
2017-01-13T13:03:19.941Z,7948
2017-01-13T13:08:19.964Z,7020
2017-01-13T13:13:20.312Z,8176
2017-01-13T13:18:20.290Z,5252
2017-01-13T13:23:19.882Z,6116
2017-01-13T13:28:20.266Z,8380
2017-01-13T13:33:19.473Z,5528
2017-01-13T13:38:20.234Z,5836
2017-01-13T13:43:20.234Z,8188
2017-01-13T13:48:19.821Z,7780
2017-01-13T13:53:20.186Z,7848
2017-01-13T13:58:20.170Z,6864
2017-01-13T14:03:19.387Z,6236
2017-01-13T14:08:19.746Z,5696
2017-01-13T14:13:19.729Z,6092
2017-01-13T14:18:20.119Z,10200
2017-01-13T14:23:20.088Z,5584
2017-01-13T14:28:19.679Z,4340
2017-01-13T14:33:19.287Z,4304
2017-01-13T14:38:19.649Z,4292
2017-01-13T14:43:20.029Z,4248
2017-01-13T14:48:19.244Z,3296
2017-01-13T14:53:19.996Z,2728
2017-01-13T14:58:19.981Z,2080
2017-01-13T15:03:20.010Z,1496
2017-01-13T15:08:19.958Z,928
2017-01-13T15:13:19.526Z,892
2017-01-13T15:18:19.904Z,780
2017-01-13T15:23:19.108Z,644
2017-01-13T15:28:19.088Z,544
2017-01-13T15:33:19.456Z,416
2017-01-13T15:38:19.812Z,264
2017-01-13T15:43:19.796Z,200
2017-01-13T15:48:19.404Z,160
2017-01-13T15:53:19.774Z,100
2017-01-13T15:58:19.736Z,60
2017-01-13T16:03:19.950Z,32
2017-01-13T16:08:19.321Z,16
2017-01-13T16:13:19.279Z,8
2017-01-13T16:18:19.288Z,8
2017-01-13T16:23:18.470Z,0
2017-01-13T16:28:19.228Z,0
2017-01-13T16:33:19.213Z,0
2017-01-13T16:38:19.186Z,0
2017-01-13T16:43:19.160Z,0
2017-01-13T16:48:19.141Z,0
2017-01-13T16:53:20.108Z,0
2017-01-13T16:58:19.488Z,0
2017-01-13T17:03:18.696Z,0
2017-01-13T17:08:19.436Z,0
2017-01-13T17:13:19.428Z,0
2017-01-13T17:18:19.005Z,0
2017-01-13T17:23:18.604Z,0
2017-01-13T17:28:19.350Z,0
2017-01-13T17:33:18.942Z,0
2017-01-13T17:38:18.914Z,0
2017-01-13T17:43:19.280Z,0
2017-01-13T17:48:19.290Z,0
2017-01-13T17:53:18.445Z,0
2017-01-13T17:58:18.812Z,0
2017-01-13T18:03:18.789Z,0
2017-01-13T18:08:18.782Z,0
2017-01-13T18:13:18.732Z,0
2017-01-13T18:18:18.712Z,0
2017-01-13T18:23:18.798Z,0
2017-01-13T18:28:18.285Z,0
2017-01-13T18:33:18.651Z,0
2017-01-13T18:38:18.619Z,0
2017-01-13T18:43:17.814Z,0
2017-01-13T18:48:18.182Z,0
2017-01-13T18:53:18.549Z,0
2017-01-13T18:58:18.133Z,0
2017-01-13T19:03:18.895Z,0
2017-01-13T19:08:18.493Z,0
2017-01-13T19:13:18.461Z,0
2017-01-13T19:18:18.837Z,0
2017-01-13T19:23:18.425Z,0
2017-01-13T19:28:18.403Z,0
2017-01-13T19:33:18.393Z,0
2017-01-13T19:38:18.808Z,0
2017-01-13T19:43:18.052Z,0
2017-01-13T19:48:19.081Z,0
2017-01-13T19:53:18.850Z,0
2017-01-13T19:58:18.988Z,0
2017-01-13T20:03:18.041Z,0
2017-01-13T20:08:18.648Z,0
2017-01-13T20:13:18.990Z,0
2017-01-13T20:18:18.760Z,0
2017-01-13T20:23:18.615Z,0
2017-01-13T20:28:18.292Z,0
2017-01-13T20:33:17.844Z,0
2017-01-13T20:38:18.507Z,0
2017-01-13T20:43:18.078Z,0
2017-01-13T20:48:18.134Z,0
2017-01-13T20:53:18.699Z,0
2017-01-13T20:58:17.686Z,0
2017-01-13T21:03:17.706Z,0
2017-01-13T21:08:18.478Z,0
2017-01-13T21:13:17.976Z,0
2017-01-13T21:18:17.953Z,0
2017-01-13T21:23:17.880Z,0
2017-01-13T21:28:18.246Z,4
2017-01-13T21:33:17.826Z,0
2017-01-13T21:38:17.027Z,0
2017-01-13T21:43:17.781Z,0
2017-01-13T21:48:18.144Z,0
2017-01-13T21:53:17.719Z,0
2017-01-13T21:58:17.299Z,0
2017-01-13T22:03:18.058Z,0
2017-01-13T22:08:17.639Z,0
2017-01-13T22:13:17.226Z,0
2017-01-13T22:18:17.196Z,0
2017-01-13T22:23:17.177Z,0
2017-01-13T22:28:17.936Z,0
2017-01-13T22:33:17.900Z,0
2017-01-13T22:38:17.871Z,0
2017-01-13T22:43:17.464Z,0
2017-01-13T22:48:17.822Z,0
2017-01-13T22:53:17.397Z,0
2017-01-13T22:58:17.764Z,0
2017-01-13T23:03:17.726Z,0
2017-01-13T23:08:17.692Z,0
2017-01-13T23:13:17.274Z,0
2017-01-13T23:18:16.855Z,0
2017-01-13T23:23:17.214Z,0
2017-01-13T23:28:17.567Z,0
2017-01-13T23:33:17.531Z,0
2017-01-13T23:38:17.502Z,0
2017-01-13T23:43:17.072Z,0
2017-01-13T23:48:17.043Z,0
2017-01-13T23:53:17.013Z,0
2017-01-13T23:58:17.364Z,0
